createdAt,value
2022-12-12T00:00:37.141Z,95331.38
2022-12-12T00:01:42.044Z,95336.44
2022-12-12T00:02:47.059Z,95339.78
2022-12-12T00:03:49.269Z,95328.81
2022-12-12T00:04:53.974Z,95338.94
2022-12-12T00:05:56.070Z,95333.84
2022-12-12T00:07:00.769Z,95333.88
2022-12-12T00:08:02.852Z,95333.88
2022-12-12T00:09:07.921Z,95328.00
2022-12-12T00:10:12.710Z,95333.03
2022-12-12T00:11:17.468Z,95324.63
2022-12-12T00:12:22.127Z,95331.31
2022-12-12T00:13:24.143Z,95344.06
2022-12-12T00:14:28.867Z,95338.16
2022-12-12T00:15:31.082Z,95338.19
2022-12-12T00:16:35.994Z,95336.50
2022-12-12T00:17:38.272Z,95339.06
2022-12-12T00:18:43.325Z,95339.91
2022-12-12T00:19:45.418Z,95341.59
2022-12-12T00:20:54.493Z,95345.75
2022-12-12T00:21:56.606Z,95342.34
2022-12-12T00:23:01.401Z,95341.56
2022-12-12T00:24:03.913Z,95339.00
2022-12-12T00:25:10.021Z,95338.16
2022-12-12T00:26:18.266Z,95336.44
2022-12-12T00:27:23.011Z,95336.47
2022-12-12T00:28:25.235Z,95336.50
2022-12-12T00:29:29.991Z,95333.09
2022-12-12T00:30:32.036Z,95328.84
2022-12-12T00:31:36.780Z,95337.28
2022-12-12T00:32:38.876Z,95332.25
2022-12-12T00:33:43.795Z,95336.50
2022-12-12T00:34:45.870Z,95336.47
2022-12-12T00:35:52.918Z,95339.06
2022-12-12T00:36:57.504Z,95339.91
2022-12-12T00:37:59.575Z,95337.41
2022-12-12T00:39:04.542Z,95339.09
2022-12-12T00:40:08.260Z,95343.28
2022-12-12T00:41:13.082Z,95342.34
2022-12-12T00:42:20.386Z,95342.31
2022-12-12T00:43:22.532Z,95344.00
2022-12-12T00:44:27.136Z,95345.72
2022-12-12T00:45:29.347Z,95338.19
2022-12-12T00:46:34.163Z,95341.59
2022-12-12T00:47:36.386Z,95344.13
2022-12-12T00:48:40.995Z,95342.44
2022-12-12T00:49:45.724Z,95341.56
2022-12-12T00:50:47.851Z,95330.50
2022-12-12T00:51:52.496Z,95339.81
2022-12-12T00:52:56.161Z,95334.78
2022-12-12T00:54:01.788Z,95344.06
2022-12-12T00:55:04.617Z,95343.25
2022-12-12T00:56:09.854Z,95339.88
2022-12-12T00:57:11.942Z,95346.63
2022-12-12T00:58:19.221Z,95348.31
2022-12-12T00:59:21.387Z,95348.34
2022-12-12T01:00:26.527Z,95341.50
2022-12-12T01:01:31.257Z,95344.88
2022-12-12T01:02:36.005Z,95347.44
2022-12-12T01:03:40.485Z,95352.53
2022-12-12T01:04:45.178Z,95342.31
2022-12-12T01:05:47.421Z,95342.34
2022-12-12T01:06:52.055Z,95350.75
2022-12-12T01:07:54.405Z,95351.63
2022-12-12T01:08:59.521Z,95349.97
2022-12-12T01:10:01.536Z,95344.94
2022-12-12T01:11:06.648Z,95349.13
2022-12-12T01:12:08.929Z,95354.09
2022-12-12T01:13:13.609Z,95344.03
2022-12-12T01:14:18.321Z,95349.88
2022-12-12T01:15:22.983Z,95350.75
2022-12-12T01:16:25.332Z,95349.13
2022-12-12T01:17:30.067Z,95354.22
2022-12-12T01:18:32.489Z,95352.50
2022-12-12T01:19:37.130Z,95344.09
2022-12-12T01:20:39.304Z,95357.63
2022-12-12T01:21:43.986Z,95358.50
2022-12-12T01:22:46.121Z,95353.41
2022-12-12T01:23:51.380Z,95354.28
2022-12-12T01:24:57.018Z,95359.38
2022-12-12T01:26:05.471Z,95362.78
2022-12-12T01:27:07.466Z,95360.25
2022-12-12T01:28:12.279Z,95358.56
2022-12-12T01:29:14.401Z,95356.06
2022-12-12T01:30:24.173Z,95361.13
2022-12-12T01:31:26.261Z,95360.25
2022-12-12T01:32:30.939Z,95361.97
2022-12-12T01:33:33.210Z,95362.81
2022-12-12T01:34:38.068Z,95362.84
2022-12-12T01:35:40.082Z,95366.25
2022-12-12T01:36:44.718Z,95358.66
2022-12-12T01:37:46.778Z,95366.25
2022-12-12T01:38:54.560Z,95362.06
2022-12-12T01:39:56.616Z,95366.28
2022-12-12T01:41:01.318Z,95363.75
2022-12-12T01:42:03.484Z,95360.41
2022-12-12T01:43:09.270Z,95357.00
2022-12-12T01:44:43.154Z,95359.56
2022-12-12T01:46:33.661Z,95354.47
2022-12-12T01:47:41.004Z,95359.53
2022-12-12T01:48:47.881Z,95361.19
2022-12-12T01:49:57.512Z,95356.09
2022-12-12T01:51:02.306Z,95354.47
2022-12-12T01:52:11.626Z,95360.38
2022-12-12T01:53:16.297Z,95357.81
2022-12-12T01:54:24.816Z,95362.91
2022-12-12T01:55:26.978Z,95360.38
2022-12-12T01:56:32.074Z,95352.78
2022-12-12T01:57:38.107Z,95358.75
2022-12-12T01:58:45.011Z,95350.31
2022-12-12T01:59:49.910Z,95348.69
2022-12-12T02:00:52.410Z,95352.09
2022-12-12T02:01:58.238Z,95352.97
2022-12-12T02:03:03.018Z,95363.13
2022-12-12T02:04:09.662Z,95366.53
2022-12-12T02:05:17.007Z,95370.78
2022-12-12T02:06:26.172Z,95363.19
2022-12-12T02:07:28.429Z,95369.09
2022-12-12T02:08:33.818Z,95368.25
2022-12-12T02:09:39.816Z,95366.59
2022-12-12T02:10:42.194Z,95367.44
2022-12-12T02:11:49.554Z,95371.66
2022-12-12T02:12:53.216Z,95369.94
2022-12-12T02:13:58.235Z,95368.25
2022-12-12T02:15:03.198Z,95376.72
2022-12-12T02:16:13.386Z,95366.56
2022-12-12T02:17:49.513Z,95371.63
2022-12-12T02:19:06.780Z,95363.13
2022-12-12T02:20:42.741Z,95368.25
2022-12-12T02:21:52.759Z,95371.66
2022-12-12T02:23:19.293Z,95383.47
2022-12-12T02:25:03.943Z,95377.56
2022-12-12T02:26:41.354Z,95376.72
2022-12-12T02:28:08.744Z,95374.19
2022-12-12T02:29:51.303Z,95378.34
2022-12-12T02:31:08.390Z,95369.91
2022-12-12T02:32:17.366Z,95372.44
2022-12-12T02:33:36.683Z,95365.72
2022-12-12T02:34:49.502Z,95369.94
2022-12-12T02:36:04.684Z,95371.63
2022-12-12T02:37:11.509Z,95372.50
2022-12-12T02:38:24.585Z,95370.84
2022-12-12T02:39:34.491Z,95372.53
2022-12-12T02:40:47.980Z,95371.69
2022-12-12T02:41:57.070Z,95370.94
2022-12-12T02:43:10.005Z,95368.44
2022-12-12T02:44:24.827Z,95368.41
2022-12-12T02:45:36.204Z,95367.50
2022-12-12T02:46:50.693Z,95365.81
2022-12-12T02:47:58.049Z,95366.66
2022-12-12T02:49:06.242Z,95370.09
2022-12-12T02:50:12.828Z,95364.22
2022-12-12T02:51:20.786Z,95364.25
2022-12-12T02:52:23.353Z,95365.13
2022-12-12T02:53:27.995Z,95367.69
2022-12-12T02:54:30.257Z,95370.25
2022-12-12T02:55:36.660Z,95370.25
2022-12-12T02:56:54.123Z,95362.69
2022-12-12T02:57:58.858Z,95368.59
2022-12-12T02:59:00.980Z,95370.28
2022-12-12T03:00:09.036Z,95378.72
2022-12-12T03:01:24.485Z,95379.56
2022-12-12T03:03:17.540Z,95380.38
2022-12-12T03:04:43.884Z,95373.63
2022-12-12T03:06:10.715Z,95385.44
2022-12-12T03:07:41.193Z,95384.59
2022-12-12T03:08:56.313Z,95382.09
2022-12-12T03:10:05.165Z,95384.63
2022-12-12T03:11:13.808Z,95377.06
2022-12-12T03:12:24.159Z,95384.63
2022-12-12T03:13:39.150Z,95381.25
2022-12-12T03:14:52.741Z,95385.47
2022-12-12T03:16:06.912Z,95378.75
2022-12-12T03:17:14.520Z,95382.94
2022-12-12T03:18:30.748Z,95385.47
2022-12-12T03:19:41.768Z,95392.22
2022-12-12T03:20:53.304Z,95387.19
2022-12-12T03:22:00.260Z,95390.53
2022-12-12T03:23:10.482Z,95387.16
2022-12-12T03:24:21.179Z,95392.22
2022-12-12T03:25:30.938Z,95394.72
2022-12-12T03:26:40.327Z,95384.63
2022-12-12T03:27:51.769Z,95393.06
2022-12-12T03:28:58.826Z,95384.66
2022-12-12T03:30:08.019Z,95382.97
2022-12-12T03:31:12.393Z,95386.31
2022-12-12T03:32:22.364Z,95390.50
2022-12-12T03:33:33.730Z,95387.16
2022-12-12T03:34:45.385Z,95395.56
2022-12-12T03:35:54.134Z,95389.69
2022-12-12T03:37:04.121Z,95390.50
2022-12-12T03:38:14.805Z,95393.88
2022-12-12T03:39:24.000Z,95395.56
2022-12-12T03:40:34.226Z,95397.25
2022-12-12T03:41:39.947Z,95398.91
2022-12-12T03:42:48.116Z,95397.25
2022-12-12T03:43:59.823Z,95386.31
2022-12-12T03:45:06.439Z,95385.47
2022-12-12T03:46:17.850Z,95396.41
2022-12-12T03:47:26.005Z,95389.69
2022-12-12T03:48:36.209Z,95397.25
2022-12-12T03:49:43.783Z,95394.72
2022-12-12T03:50:53.362Z,95385.47
2022-12-12T03:52:01.249Z,95388.00
2022-12-12T03:53:13.861Z,95389.69
2022-12-12T03:54:22.986Z,95392.22
2022-12-12T03:55:34.010Z,95387.16
2022-12-12T03:56:46.511Z,95392.22
2022-12-12T03:57:54.804Z,95392.22
2022-12-12T03:59:04.533Z,95393.88
2022-12-12T04:00:09.132Z,95388.84
2022-12-12T04:01:15.790Z,95393.88
2022-12-12T04:02:23.319Z,95393.91
2022-12-12T04:03:32.514Z,95388.03
2022-12-12T04:04:41.614Z,95383.81
2022-12-12T04:06:04.421Z,95388.84
2022-12-12T04:07:16.654Z,95388.00
2022-12-12T04:08:19.407Z,95388.00
2022-12-12T04:09:39.159Z,95393.03
2022-12-12T04:11:03.535Z,95398.94
2022-12-12T04:12:28.875Z,95388.84
2022-12-12T04:13:38.167Z,95393.03
2022-12-12T04:14:58.328Z,95393.88
2022-12-12T04:16:07.046Z,95402.31
2022-12-12T04:17:13.334Z,95398.94
2022-12-12T04:18:25.363Z,95395.59
2022-12-12T04:19:57.890Z,95401.47
2022-12-12T04:21:23.036Z,95398.97
2022-12-12T04:22:50.436Z,95398.94
2022-12-12T04:24:03.261Z,95404.00
2022-12-12T04:25:11.144Z,95400.63
2022-12-12T04:26:33.807Z,95398.94
2022-12-12T04:27:43.783Z,95402.28
2022-12-12T04:28:57.376Z,95403.97
2022-12-12T04:30:06.873Z,95401.44
2022-12-12T04:31:12.365Z,95403.97
2022-12-12T04:32:23.165Z,95398.06
2022-12-12T04:33:29.561Z,95398.91
2022-12-12T04:34:43.550Z,95401.44
2022-12-12T04:35:50.207Z,95409.03
2022-12-12T04:36:56.095Z,95398.91
2022-12-12T04:38:01.122Z,95401.44
2022-12-12T04:39:09.087Z,95405.63
2022-12-12T04:40:19.842Z,95407.34
2022-12-12T04:41:23.621Z,95402.25
2022-12-12T04:42:32.559Z,95404.78
2022-12-12T04:43:37.965Z,95403.94
2022-12-12T04:44:46.270Z,95405.63
2022-12-12T04:45:52.291Z,95409.84
2022-12-12T04:46:59.506Z,95405.63
2022-12-12T04:48:03.808Z,95405.63
2022-12-12T04:49:13.875Z,95410.69
2022-12-12T04:50:22.397Z,95414.91
2022-12-12T04:51:31.815Z,95409.00
2022-12-12T04:52:37.838Z,95414.91
2022-12-12T04:53:45.266Z,95417.44
2022-12-12T04:54:54.066Z,95411.56
2022-12-12T04:55:58.530Z,95414.06
2022-12-12T04:57:07.922Z,95413.22
2022-12-12T04:58:11.456Z,95417.41
2022-12-12T04:59:16.377Z,95412.38
2022-12-12T05:00:21.107Z,95417.41
2022-12-12T05:01:35.305Z,95419.97
2022-12-12T05:02:44.190Z,95419.09
2022-12-12T05:03:53.403Z,95410.69
2022-12-12T05:05:00.061Z,95410.69
2022-12-12T05:06:12.624Z,95412.38
2022-12-12T05:07:21.125Z,95415.75
2022-12-12T05:08:30.722Z,95416.59
2022-12-12T05:09:32.923Z,95418.28
2022-12-12T05:10:44.254Z,95424.16
2022-12-12T05:11:47.819Z,95417.44
2022-12-12T05:12:53.987Z,95421.63
2022-12-12T05:13:56.083Z,95427.53
2022-12-12T05:15:00.796Z,95425.84
2022-12-12T05:16:09.609Z,95430.91
2022-12-12T05:17:19.959Z,95429.19
2022-12-12T05:18:23.201Z,95432.59
2022-12-12T05:19:27.863Z,95429.19
2022-12-12T05:20:29.986Z,95434.25
2022-12-12T05:21:37.251Z,95429.19
2022-12-12T05:22:39.276Z,95429.19
2022-12-12T05:23:45.068Z,95433.38
2022-12-12T05:24:47.143Z,95435.94
2022-12-12T05:25:51.782Z,95433.41
2022-12-12T05:26:53.988Z,95436.75
2022-12-12T05:27:58.795Z,95432.53
2022-12-12T05:29:05.424Z,95433.41
2022-12-12T05:30:13.501Z,95433.41
2022-12-12T05:31:15.664Z,95435.94
2022-12-12T05:32:20.486Z,95435.06
2022-12-12T05:33:22.519Z,95434.25
2022-12-12T05:34:27.224Z,95438.47
2022-12-12T05:35:29.346Z,95438.47
2022-12-12T05:36:34.061Z,95439.31
2022-12-12T05:37:38.828Z,95440.97
2022-12-12T05:38:44.017Z,95439.31
2022-12-12T05:39:48.635Z,95440.19
2022-12-12T05:40:51.191Z,95441.00
2022-12-12T05:41:55.939Z,95437.66
2022-12-12T05:42:58.168Z,95440.19
2022-12-12T05:44:02.755Z,95439.31
2022-12-12T05:45:06.404Z,95447.75
2022-12-12T05:46:11.188Z,95441.00
2022-12-12T05:47:13.320Z,95440.97
2022-12-12T05:48:23.960Z,95440.97
2022-12-12T05:49:29.262Z,95448.56
2022-12-12T05:50:33.831Z,95444.38
2022-12-12T05:51:35.849Z,95443.50
2022-12-12T05:52:43.034Z,95448.56
2022-12-12T05:53:45.331Z,95446.00
2022-12-12T05:54:50.496Z,95440.94
2022-12-12T05:55:55.272Z,95442.66
2022-12-12T05:56:57.260Z,95442.63
2022-12-12T05:58:01.836Z,95438.41
2022-12-12T05:59:06.651Z,95440.94
2022-12-12T06:00:10.454Z,95444.31
2022-12-12T06:01:15.099Z,95449.38
2022-12-12T06:02:17.395Z,95445.16
2022-12-12T06:03:22.392Z,95441.78
2022-12-12T06:04:24.536Z,95445.16
2022-12-12T06:05:29.368Z,95447.69
2022-12-12T06:06:34.008Z,95446.84
2022-12-12T06:07:36.117Z,95447.69
2022-12-12T06:08:43.403Z,95456.13
2022-12-12T06:09:48.059Z,95450.22
2022-12-12T06:10:50.211Z,95451.84
2022-12-12T06:11:54.810Z,95452.75
2022-12-12T06:12:56.910Z,95451.91
2022-12-12T06:14:01.569Z,95449.38
2022-12-12T06:15:04.139Z,95462.03
2022-12-12T06:16:10.593Z,95459.50
2022-12-12T06:17:12.683Z,95464.56
2022-12-12T06:18:17.386Z,95463.72
2022-12-12T06:19:19.840Z,95461.19
2022-12-12T06:20:24.510Z,95459.50
2022-12-12T06:21:26.511Z,95456.13
2022-12-12T06:22:31.096Z,95462.03
2022-12-12T06:23:35.790Z,95462.91
2022-12-12T06:24:43.019Z,95459.53
2022-12-12T06:25:45.058Z,95462.03
2022-12-12T06:26:49.776Z,95457.84
2022-12-12T06:27:51.864Z,95457.81
2022-12-12T06:28:56.448Z,95456.16
2022-12-12T06:29:58.499Z,95462.06
2022-12-12T06:31:08.180Z,95459.53
2022-12-12T06:32:15.927Z,95458.69
2022-12-12T06:33:17.974Z,95460.38
2022-12-12T06:34:22.569Z,95458.69
2022-12-12T06:35:24.578Z,95458.72
2022-12-12T06:36:29.299Z,95458.69
2022-12-12T06:37:31.275Z,95457.88
2022-12-12T06:38:36.961Z,95460.41
2022-12-12T06:39:44.163Z,95459.53
2022-12-12T06:40:46.157Z,95460.41
2022-12-12T06:41:50.821Z,95461.25
2022-12-12T06:42:52.814Z,95463.78
2022-12-12T06:43:58.763Z,95465.44
2022-12-12T06:45:00.775Z,95462.94
2022-12-12T06:46:06.080Z,95466.31
2022-12-12T06:47:08.094Z,95468.81
2022-12-12T06:48:12.719Z,95468.00
2022-12-12T06:49:17.343Z,95468.00
2022-12-12T06:50:23.631Z,95468.84
2022-12-12T06:51:32.035Z,95470.50
2022-12-12T06:52:34.013Z,95465.47
2022-12-12T06:53:39.105Z,95467.16
2022-12-12T06:54:46.514Z,95473.91
2022-12-12T06:55:48.512Z,95468.00
2022-12-12T06:56:53.213Z,95478.13
2022-12-12T06:57:57.863Z,95476.44
2022-12-12T06:59:00.004Z,95475.59
2022-12-12T07:00:04.955Z,95478.97
2022-12-12T07:01:07.862Z,95483.16
2022-12-12T07:02:14.062Z,95489.06
2022-12-12T07:03:16.281Z,95493.28
2022-12-12T07:04:21.256Z,95484.03
2022-12-12T07:05:23.305Z,95491.59
2022-12-12T07:06:28.830Z,95491.59
2022-12-12T07:07:33.445Z,95488.22
2022-12-12T07:08:38.752Z,95485.69
2022-12-12T07:09:47.071Z,95486.56
2022-12-12T07:10:49.063Z,95484.00
2022-12-12T07:11:53.722Z,95488.22
2022-12-12T07:13:12.557Z,95485.69
2022-12-12T07:14:17.399Z,95488.22
2022-12-12T07:15:22.045Z,95492.44
2022-12-12T07:16:27.116Z,95493.31
2022-12-12T07:17:31.945Z,95491.59
2022-12-12T07:18:36.822Z,95494.13
2022-12-12T07:19:41.452Z,95498.34
2022-12-12T07:20:46.053Z,95494.13
2022-12-12T07:21:50.794Z,95495.81
2022-12-12T07:22:53.211Z,95489.94
2022-12-12T07:23:58.862Z,95494.13
2022-12-12T07:25:07.839Z,95495.81
2022-12-12T07:26:15.686Z,95490.75
2022-12-12T07:27:21.900Z,95505.09
2022-12-12T07:28:24.110Z,95495.81
2022-12-12T07:29:28.734Z,95501.72
2022-12-12T07:30:30.772Z,95493.28
2022-12-12T07:31:35.769Z,95496.66
2022-12-12T07:32:37.830Z,95499.19
2022-12-12T07:33:45.035Z,95495.81
2022-12-12T07:34:49.739Z,95504.25
2022-12-12T07:35:51.755Z,95506.75
2022-12-12T07:37:02.360Z,95503.41
2022-12-12T07:38:05.969Z,95505.09
2022-12-12T07:39:13.554Z,95506.75
2022-12-12T07:40:24.537Z,95502.56
2022-12-12T07:41:29.225Z,95498.34
2022-12-12T07:42:31.269Z,95501.72
2022-12-12T07:43:42.797Z,95503.41
2022-12-12T07:44:48.204Z,95511.81
2022-12-12T07:45:50.199Z,95514.34
2022-12-12T07:46:54.952Z,95507.63
2022-12-12T07:47:59.622Z,95513.53
2022-12-12T07:49:04.253Z,95504.25
2022-12-12T07:50:07.597Z,95512.66
2022-12-12T07:51:12.274Z,95506.78
2022-12-12T07:52:17.514Z,95505.94
2022-12-12T07:53:19.552Z,95510.16
2022-12-12T07:54:24.203Z,95502.56
2022-12-12T07:55:29.582Z,95509.28
2022-12-12T07:56:34.144Z,95511.81
2022-12-12T07:57:36.129Z,95512.66
2022-12-12T07:58:41.228Z,95510.13
2022-12-12T07:59:43.289Z,95504.25
2022-12-12T08:00:47.932Z,95505.91
2022-12-12T08:01:52.533Z,95499.19
2022-12-12T08:02:54.583Z,95508.44
2022-12-12T08:03:59.481Z,95512.66
2022-12-12T08:05:01.575Z,95510.97
2022-12-12T08:06:08.522Z,95510.16
2022-12-12T08:07:13.102Z,95514.31
2022-12-12T08:08:15.176Z,95513.50
2022-12-12T08:09:20.250Z,95514.34
2022-12-12T08:10:22.433Z,95515.19
2022-12-12T08:11:29.650Z,95511.00
2022-12-12T08:12:34.764Z,95510.97
2022-12-12T08:13:41.426Z,95509.31
2022-12-12T08:14:46.175Z,95506.78
2022-12-12T08:15:48.300Z,95513.53
2022-12-12T08:16:52.967Z,95505.09
2022-12-12T08:17:57.615Z,95503.38
2022-12-12T08:18:59.639Z,95505.94
2022-12-12T08:20:04.228Z,95508.44
2022-12-12T08:21:10.926Z,95505.91
2022-12-12T08:22:15.548Z,95510.13
2022-12-12T08:23:20.173Z,95505.88
2022-12-12T08:24:24.767Z,95511.81
2022-12-12T08:25:26.845Z,95500.84
2022-12-12T08:26:34.772Z,95505.91
2022-12-12T08:27:39.536Z,95499.13
2022-12-12T08:28:45.939Z,95504.22
2022-12-12T08:29:50.547Z,95503.38
2022-12-12T08:30:55.168Z,95500.84
2022-12-12T08:32:00.027Z,95507.59
2022-12-12T08:33:08.048Z,95505.03
2022-12-12T08:34:12.955Z,95504.09
2022-12-12T08:35:15.145Z,95506.59
2022-12-12T08:36:23.053Z,95508.28
2022-12-12T08:37:27.925Z,95503.94
2022-12-12T08:38:32.507Z,95515.72
2022-12-12T08:39:37.456Z,95511.44
2022-12-12T08:40:40.203Z,95516.44
2022-12-12T08:41:49.262Z,95511.97
2022-12-12T08:42:51.952Z,95511.84
2022-12-12T08:43:56.940Z,95522.13
2022-12-12T08:45:01.560Z,95520.28
2022-12-12T08:46:05.636Z,95521.72
2022-12-12T08:47:10.720Z,95530.03
2022-12-12T08:48:13.343Z,95518.34
2022-12-12T08:49:17.975Z,95530.97
2022-12-12T08:50:22.673Z,95515.63
2022-12-12T08:51:27.351Z,95522.03
2022-12-12T08:52:31.944Z,95515.75
2022-12-12T08:53:36.584Z,95520.16
2022-12-12T08:54:41.647Z,95515.75
2022-12-12T08:55:46.235Z,95510.69
2022-12-12T08:56:53.577Z,95508.31
2022-12-12T08:57:58.191Z,95506.81
2022-12-12T08:59:02.875Z,95515.00
2022-12-12T09:00:05.955Z,95516.97
2022-12-12T09:01:13.960Z,95519.72
2022-12-12T09:02:18.706Z,95519.66
2022-12-12T09:03:28.998Z,95520.75
2022-12-12T09:04:34.219Z,95523.63
2022-12-12T09:05:38.903Z,95531.47
2022-12-12T09:06:43.674Z,95530.97
2022-12-12T09:07:45.821Z,95529.88
2022-12-12T09:08:52.047Z,95533.72
2022-12-12T09:09:56.736Z,95536.28
2022-12-12T09:11:01.776Z,95544.38
2022-12-12T09:12:09.719Z,95540.94
2022-12-12T09:13:14.366Z,95543.50
2022-12-12T09:14:18.932Z,95546.81
2022-12-12T09:15:24.339Z,95546.78
2022-12-12T09:16:30.226Z,95545.06
2022-12-12T09:17:34.923Z,95544.19
2022-12-12T09:18:47.743Z,95543.31
2022-12-12T09:19:53.017Z,95544.06
2022-12-12T09:20:59.252Z,95548.22
2022-12-12T09:22:03.870Z,95549.81
2022-12-12T09:23:08.487Z,95552.28
2022-12-12T09:24:13.111Z,95548.00
2022-12-12T09:25:17.745Z,95553.81
2022-12-12T09:26:22.362Z,95552.06
2022-12-12T09:27:29.901Z,95553.66
2022-12-12T09:28:32.054Z,95552.69
2022-12-12T09:29:36.679Z,95556.03
2022-12-12T09:30:41.478Z,95556.31
2022-12-12T09:31:46.579Z,95560.31
2022-12-12T09:32:51.205Z,95551.75
2022-12-12T09:33:56.873Z,95553.44
2022-12-12T09:35:01.484Z,95554.31
2022-12-12T09:36:05.509Z,95561.28
2022-12-12T09:37:10.093Z,95562.41
2022-12-12T09:38:15.305Z,95560.72
2022-12-12T09:39:20.091Z,95561.41
2022-12-12T09:40:35.346Z,95563.75
2022-12-12T09:41:40.088Z,95560.41
2022-12-12T09:42:52.087Z,95556.44
2022-12-12T09:43:57.965Z,95563.53
2022-12-12T09:45:08.326Z,95562.84
2022-12-12T09:46:23.514Z,95556.84
2022-12-12T09:47:37.028Z,95568.81
2022-12-12T09:48:44.988Z,95566.19
2022-12-12T09:49:51.745Z,95571.47
2022-12-12T09:50:54.566Z,95573.19
2022-12-12T09:52:01.260Z,95573.13
2022-12-12T09:53:09.168Z,95567.34
2022-12-12T09:54:14.654Z,95568.09
2022-12-12T09:55:36.854Z,95568.03
2022-12-12T09:56:51.166Z,95572.16
2022-12-12T09:58:04.127Z,95563.69
2022-12-12T09:59:14.570Z,95565.25
2022-12-12T10:00:19.233Z,95559.91
2022-12-12T10:01:30.023Z,95554.00
2022-12-12T10:02:58.365Z,95555.78
2022-12-12T10:04:15.577Z,95552.31
2022-12-12T10:05:32.931Z,95552.06
2022-12-12T10:06:42.839Z,95548.66
2022-12-12T10:07:51.713Z,95544.06
2022-12-12T10:09:25.563Z,95547.91
2022-12-12T10:10:33.753Z,95546.69
2022-12-12T10:11:54.732Z,95548.09
2022-12-12T10:13:04.179Z,95550.13
2022-12-12T10:14:09.121Z,95545.63
2022-12-12T10:15:26.570Z,95546.28
2022-12-12T10:16:34.298Z,95542.94
2022-12-12T10:17:43.214Z,95540.06
2022-12-12T10:18:48.943Z,95541.56
2022-12-12T10:19:57.163Z,95543.88
2022-12-12T10:21:05.544Z,95528.53
2022-12-12T10:22:21.310Z,95535.22
2022-12-12T10:23:38.912Z,95540.31
2022-12-12T10:24:49.358Z,95538.59
2022-12-12T10:25:59.161Z,95539.47
2022-12-12T10:27:11.377Z,95538.59
2022-12-12T10:28:21.147Z,95534.16
2022-12-12T10:29:28.650Z,95539.06
2022-12-12T10:30:39.457Z,95539.84
2022-12-12T10:31:55.965Z,95537.44
2022-12-12T10:33:19.178Z,95542.56
2022-12-12T10:34:38.781Z,95537.78
2022-12-12T10:35:56.478Z,95538.69
2022-12-12T10:37:21.507Z,95542.97
2022-12-12T10:38:40.570Z,95536.16
2022-12-12T10:39:54.978Z,95540.38
2022-12-12T10:41:07.172Z,95546.28
2022-12-12T10:42:21.229Z,95540.38
2022-12-12T10:43:34.350Z,95546.59
2022-12-12T10:45:02.199Z,95537.06
2022-12-12T10:46:23.540Z,95535.00
2022-12-12T10:47:28.631Z,95533.75
2022-12-12T10:48:30.669Z,95524.47
2022-12-12T10:49:36.527Z,95517.47
2022-12-12T10:50:45.439Z,95499.16
2022-12-12T10:51:52.163Z,95502.19
2022-12-12T10:52:56.998Z,95497.09
2022-12-12T10:54:01.568Z,95490.69
2022-12-12T10:55:12.187Z,95478.91
2022-12-12T10:56:24.534Z,95479.31
2022-12-12T10:57:28.100Z,95472.28
2022-12-12T10:58:41.687Z,95479.16
2022-12-12T10:59:49.644Z,95469.78
2022-12-12T11:00:54.762Z,95484.53
2022-12-12T11:02:10.054Z,95479.81
2022-12-12T11:03:31.238Z,95479.19
2022-12-12T11:04:35.867Z,95473.66
2022-12-12T11:05:42.240Z,95473.19
2022-12-12T11:06:49.529Z,95486.44
2022-12-12T11:08:04.193Z,95493.50
2022-12-12T11:09:12.163Z,95486.47
2022-12-12T11:10:22.557Z,95491.31
2022-12-12T11:11:28.787Z,95493.25
2022-12-12T11:12:34.909Z,95498.78
2022-12-12T11:13:49.190Z,95506.41
2022-12-12T11:14:56.363Z,95496.47
2022-12-12T11:16:02.904Z,95503.13
2022-12-12T11:17:23.248Z,95504.50
2022-12-12T11:18:29.259Z,95491.91
2022-12-12T11:19:41.392Z,95508.53
2022-12-12T11:20:46.124Z,95504.22
2022-12-12T11:21:51.401Z,95505.44
2022-12-12T11:22:56.612Z,95501.16
2022-12-12T11:24:02.807Z,95506.16
2022-12-12T11:25:08.684Z,95503.06
2022-12-12T11:26:17.003Z,95504.22
2022-12-12T11:27:25.442Z,95504.81
2022-12-12T11:28:33.210Z,95504.72
2022-12-12T11:29:46.736Z,95497.63
2022-12-12T11:30:55.230Z,95498.53
2022-12-12T11:32:00.938Z,95487.94
2022-12-12T11:33:08.440Z,95481.38
2022-12-12T11:34:17.081Z,95466.00
2022-12-12T11:35:28.229Z,95454.44
2022-12-12T11:36:36.271Z,95455.94
2022-12-12T11:37:48.586Z,95452.56
2022-12-12T11:38:56.058Z,95450.44
2022-12-12T11:40:01.374Z,95442.00
2022-12-12T11:41:09.005Z,95431.75
2022-12-12T11:42:23.124Z,95438.97
2022-12-12T11:43:29.978Z,95447.41
2022-12-12T11:44:37.368Z,95444.59
2022-12-12T11:45:44.663Z,95446.31
2022-12-12T11:46:49.450Z,95436.94
2022-12-12T11:47:54.555Z,95443.88
2022-12-12T11:49:05.611Z,95443.75
2022-12-12T11:50:23.766Z,95441.78
2022-12-12T11:51:40.380Z,95439.25
2022-12-12T11:52:45.009Z,95441.16
2022-12-12T11:53:49.675Z,95443.00
2022-12-12T11:54:54.570Z,95446.59
2022-12-12T11:56:08.957Z,95450.63
2022-12-12T11:57:18.083Z,95450.97
2022-12-12T11:58:27.870Z,95457.13
2022-12-12T11:59:56.730Z,95454.88
2022-12-12T12:01:09.332Z,95457.53
2022-12-12T12:02:31.637Z,95454.22
2022-12-12T12:03:56.613Z,95458.47
2022-12-12T12:05:16.537Z,95451.09
2022-12-12T12:06:33.055Z,95461.34
2022-12-12T12:07:54.590Z,95458.16
2022-12-12T12:09:19.961Z,95460.50
2022-12-12T12:10:37.886Z,95469.78
2022-12-12T12:11:53.142Z,95473.81
2022-12-12T12:13:10.705Z,95467.94
2022-12-12T12:14:34.411Z,95476.56
2022-12-12T12:15:48.753Z,95480.47
2022-12-12T12:17:02.810Z,95485.13
2022-12-12T12:18:25.062Z,95486.53
2022-12-12T12:19:42.587Z,95473.69
2022-12-12T12:21:06.566Z,95477.47
2022-12-12T12:22:23.902Z,95482.53
2022-12-12T12:23:42.551Z,95478.22
2022-12-12T12:25:17.853Z,95470.38
2022-12-12T12:26:31.534Z,95464.56
2022-12-12T12:27:44.319Z,95461.13
2022-12-12T12:29:19.085Z,95454.44
2022-12-12T12:30:25.528Z,95453.59
2022-12-12T12:31:37.878Z,95451.47
2022-12-12T12:32:56.632Z,95449.94
2022-12-12T12:34:13.112Z,95451.56
2022-12-12T12:35:30.722Z,95441.31
2022-12-12T12:36:48.503Z,95446.34
2022-12-12T12:38:06.326Z,95439.66
2022-12-12T12:39:28.940Z,95438.94
2022-12-12T12:40:47.279Z,95434.94
2022-12-12T12:42:04.919Z,95433.44
2022-12-12T12:43:27.976Z,95428.63
2022-12-12T12:44:46.975Z,95426.88
2022-12-12T12:45:57.741Z,95423.53
2022-12-12T12:47:10.325Z,95426.28
2022-12-12T12:48:22.286Z,95424.13
2022-12-12T12:49:32.386Z,95425.19
2022-12-12T12:50:43.063Z,95428.25
2022-12-12T12:51:50.808Z,95416.75
2022-12-12T12:53:00.308Z,95416.97
2022-12-12T12:54:08.681Z,95419.53
2022-12-12T12:55:19.580Z,95418.84
2022-12-12T12:56:28.217Z,95420.63
2022-12-12T12:57:37.521Z,95423.06
2022-12-12T12:58:47.917Z,95417.94
2022-12-12T12:59:53.728Z,95420.53
2022-12-12T13:01:03.530Z,95422.34
2022-12-12T13:02:23.713Z,95413.50
2022-12-12T13:03:40.988Z,95419.97
2022-12-12T13:04:51.225Z,95420.16
2022-12-12T13:05:59.988Z,95417.72
2022-12-12T13:07:12.332Z,95422.47
2022-12-12T13:08:23.850Z,95417.09
2022-12-12T13:09:32.786Z,95416.34
2022-12-12T13:10:41.500Z,95416.84
2022-12-12T13:11:47.751Z,95413.97
2022-12-12T13:12:58.382Z,95410.28
2022-12-12T13:14:18.379Z,95417.81
2022-12-12T13:15:24.961Z,95418.16
2022-12-12T13:16:35.377Z,95415.50
2022-12-12T13:17:49.631Z,95413.22
2022-12-12T13:19:06.278Z,95410.16
2022-12-12T13:20:19.012Z,95411.50
2022-12-12T13:21:34.051Z,95409.75
2022-12-12T13:22:49.892Z,95410.91